Time;durP1;ratioP1;P1;durP2;ratioP2;P2;SDS_P1;SDS_P2;PMS_P1;PMS_P2;Temp;Humidity;BMP_temperature;BMP_pressure;BME280_temperature;BME280_humidity;BME280_pressure;Samples;Min_cycle;Max_cycle;Signal;HPM_P1;HPM_P2
2021/01/20 00:00:00;;;;;;;11.47;4.53;;;0.90;99.90;;;;;;5001259;28;20617;-71
2021/01/20 00:02:26;;;;;;;13.63;5.43;;;0.80;99.90;;;;;;5000513;28;20335;-71
2021/01/20 00:04:53;;;;;;;12.77;5.30;;;0.80;99.90;;;;;;5030132;23;20315;-76
2021/01/20 00:07:19;;;;;;;12.17;5.00;;;0.80;99.90;;;;;;5023678;28;20204;-75
2021/01/20 00:09:45;;;;;;;10.37;4.27;;;0.90;99.90;;;;;;5024826;28;20528;-75
2021/01/20 00:12:13;;;;;;;13.87;4.77;;;0.90;99.90;;;;;;5024892;28;20223;-76
2021/01/20 00:14:39;;;;;;;12.23;4.53;;;0.90;99.90;;;;;;5017901;28;20549;-75
2021/01/20 00:17:06;;;;;;;13.17;4.73;;;0.90;99.90;;;;;;5017643;28;20207;-76
2021/01/20 00:19:32;;;;;;;8.87;4.57;;;0.90;99.90;;;;;;5018517;28;20561;-75
2021/01/20 00:21:58;;;;;;;13.87;5.20;;;1.00;99.90;;;;;;5014523;28;20712;-75
2021/01/20 00:24:25;;;;;;;16.10;5.00;;;1.00;99.90;;;;;;5018207;28;20465;-76
2021/01/20 00:26:51;;;;;;;14.73;4.97;;;1.10;99.90;;;;;;5014475;28;20253;-74
2021/01/20 00:29:19;;;;;;;15.57;5.33;;;1.20;99.90;;;;;;5016263;28;20415;-76
2021/01/20 00:31:46;;;;;;;12.03;4.77;;;1.10;99.90;;;;;;5017043;28;20752;-75
2021/01/20 00:34:12;;;;;;;15.90;5.60;;;1.10;99.90;;;;;;5015595;28;20235;-76
2021/01/20 00:36:39;;;;;;;12.13;5.37;;;1.20;99.90;;;;;;5017027;28;20203;-76
2021/01/20 00:39:06;;;;;;;14.23;5.53;;;1.20;99.90;;;;;;5020581;28;20300;-76
2021/01/20 00:41:32;;;;;;;19.40;8.00;;;1.10;99.90;;;;;;5017946;28;20231;-76
2021/01/20 00:43:59;;;;;;;25.30;9.60;;;1.10;99.90;;;;;;5015993;28;20264;-76
2021/01/20 00:46:26;;;;;;;26.47;12.30;;;1.00;99.90;;;;;;5015765;28;20261;-76
2021/01/20 00:48:53;;;;;;;28.93;11.73;;;0.90;99.90;;;;;;5015096;28;20230;-75
2021/01/20 00:51:19;;;;;;;22.83;10.87;;;0.90;99.90;;;;;;5015774;28;20574;-76
2021/01/20 00:53:46;;;;;;;16.20;6.67;;;0.80;99.90;;;;;;5015566;28;20621;-76
2021/01/20 00:56:12;;;;;;;14.97;6.10;;;0.90;99.90;;;;;;5015421;28;20235;-75
2021/01/20 00:58:38;;;;;;;11.57;6.00;;;0.90;99.90;;;;;;5016397;28;20838;-75
2021/01/20 01:01:05;;;;;;;12.23;5.00;;;0.90;99.90;;;;;;5017433;28;20207;-76
2021/01/20 01:03:32;;;;;;;10.87;4.50;;;0.90;99.90;;;;;;5014354;28;20470;-76
2021/01/20 01:05:59;;;;;;;11.60;4.73;;;1.00;99.90;;;;;;5016484;28;20246;-76
2021/01/20 01:08:25;;;;;;;13.90;4.80;;;1.00;99.90;;;;;;5017700;28;20218;-74
2021/01/20 01:10:52;;;;;;;13.70;4.27;;;1.00;99.90;;;;;;5014617;28;20223;-76
2021/01/20 01:13:19;;;;;;;11.93;4.33;;;1.00;99.90;;;;;;5014623;28;20214;-75
2021/01/20 01:15:45;;;;;;;9.90;4.43;;;1.00;99.90;;;;;;5019408;28;20271;-75
2021/01/20 01:18:12;;;;;;;12.20;4.43;;;0.90;99.90;;;;;;5016839;28;20208;-75
2021/01/20 01:20:39;;;;;;;10.87;4.37;;;0.80;99.90;;;;;;5014975;28;20231;-76
2021/01/20 01:23:05;;;;;;;13.23;4.00;;;0.70;99.90;;;;;;5014795;28;20583;-75
2021/01/20 01:25:32;;;;;;;12.10;4.47;;;0.70;99.90;;;;;;5017945;28;20200;-75
2021/01/20 01:27:59;;;;;;;10.20;4.00;;;0.60;99.90;;;;;;5015639;28;20685;-76
2021/01/20 01:30:26;;;;;;;9.77;3.40;;;0.50;99.90;;;;;;5013870;28;21762;-76
2021/01/20 01:32:52;;;;;;;7.87;3.43;;;0.50;99.90;;;;;;5014829;28;20230;-76
2021/01/20 01:35:19;;;;;;;5.97;2.50;;;0.40;99.90;;;;;;5014961;28;20472;-76
2021/01/20 01:37:46;;;;;;;7.13;3.17;;;0.30;99.90;;;;;;5015875;28;20208;-76
2021/01/20 01:40:13;;;;;;;14.03;3.33;;;0.30;99.90;;;;;;5013484;28;20196;-76
2021/01/20 01:42:39;;;;;;;9.10;3.57;;;0.20;99.90;;;;;;5014278;28;20716;-76
2021/01/20 01:45:07;;;;;;;8.03;3.27;;;0.10;99.90;;;;;;5016631;28;20598;-76
2021/01/20 01:47:33;;;;;;;8.43;3.63;;;0.20;99.90;;;;;;5009478;28;21261;-76
2021/01/20 01:50:00;;;;;;;5.23;2.73;;;0.10;99.90;;;;;;5013605;28;20498;-76
2021/01/20 01:52:29;;;;;;;6.67;2.73;;;0.10;99.90;;;;;;5009543;28;20286;-76
2021/01/20 01:54:56;;;;;;;11.53;3.40;;;0.00;99.90;;;;;;5013455;28;20462;-76
2021/01/20 01:57:23;;;;;;;9.33;3.33;;;-0.10;99.90;;;;;;5014579;28;20562;-76
2021/01/20 01:59:50;;;;;;;9.53;3.50;;;-0.10;99.90;;;;;;5013341;28;21009;-76
2021/01/20 02:02:17;;;;;;;11.53;3.93;;;-0.20;99.90;;;;;;5012797;28;21140;-76
2021/01/20 02:04:43;;;;;;;10.37;3.40;;;-0.20;99.90;;;;;;5016518;28;20470;-76
2021/01/20 02:07:11;;;;;;;12.07;4.50;;;-0.10;99.90;;;;;;5014932;28;20613;-76
2021/01/20 02:09:37;;;;;;;11.73;4.30;;;-0.10;99.90;;;;;;5014833;28;20992;-76
2021/01/20 02:12:24;;;;;;;16.80;4.33;;;-0.10;99.90;;;;;;5010804;28;20574;-76
2021/01/20 02:15:00;;;;;;;10.17;4.17;;;-0.10;99.90;;;;;;5015173;28;20295;-75
2021/01/20 02:17:34;;;;;;;9.33;4.00;;;-0.20;99.90;;;;;;5014405;28;20596;-75
2021/01/20 02:20:36;;;;;;;14.13;4.03;;;-0.30;99.90;;;;;;5013465;28;20832;-75
2021/01/20 02:23:05;;;;;;;15.50;4.90;;;-0.40;99.90;;;;;;4978781;28;20499;-76
2021/01/20 02:25:59;;;;;;;17.87;5.23;;;-0.40;99.90;;;;;;5016257;28;20476;-75
2021/01/20 02:28:35;;;;;;;10.03;4.60;;;-0.40;99.90;;;;;;5014482;28;20561;-76
2021/01/20 02:31:04;;;;;;;13.03;5.33;;;-0.40;99.90;;;;;;5013939;28;20523;-75
2021/01/20 02:33:33;;;;;;;12.97;5.10;;;-0.40;99.90;;;;;;5013999;28;20544;-73
2021/01/20 02:36:03;;;;;;;12.00;4.03;;;-0.40;99.90;;;;;;5015584;28;20548;-74
2021/01/20 02:38:30;;;;;;;12.77;4.47;;;-0.50;99.90;;;;;;5015627;28;21032;-75
2021/01/20 02:40:56;;;;;;;14.40;5.10;;;-0.50;99.90;;;;;;5013381;28;20471;-76
2021/01/20 02:43:23;;;;;;;13.00;5.53;;;-0.50;99.90;;;;;;5012815;28;21117;-75
2021/01/20 02:45:49;;;;;;;11.93;5.30;;;-0.50;99.90;;;;;;5011017;28;20480;-76
2021/01/20 02:48:17;;;;;;;11.17;4.97;;;-0.50;99.90;;;;;;5010554;28;20462;-75
2021/01/20 02:50:44;;;;;;;17.00;5.10;;;-0.50;99.90;;;;;;5015269;28;20524;-75
2021/01/20 02:53:15;;;;;;;14.63;5.97;;;-0.50;99.90;;;;;;5012344;28;20484;-76
2021/01/20 02:55:47;;;;;;;16.10;4.90;;;-0.60;99.90;;;;;;5010397;28;20564;-76
2021/01/20 02:58:15;;;;;;;15.03;4.87;;;-0.60;99.90;;;;;;5015367;28;20454;-76
2021/01/20 03:00:43;;;;;;;13.27;5.73;;;-0.60;99.90;;;;;;5015359;28;20468;-76
2021/01/20 03:03:11;;;;;;;11.03;4.93;;;-0.40;99.90;;;;;;5013482;28;20536;-76
2021/01/20 03:05:40;;;;;;;11.37;5.30;;;-0.40;99.90;;;;;;5013891;28;20963;-76
2021/01/20 03:08:07;;;;;;;11.87;5.33;;;-0.40;99.90;;;;;;5013601;28;20513;-76
2021/01/20 03:10:33;;;;;;;11.03;5.50;;;-0.50;99.90;;;;;;5016749;28;20492;-76
2021/01/20 03:13:00;;;;;;;12.60;5.40;;;-0.40;99.90;;;;;;5017251;28;20513;-76
2021/01/20 03:15:31;;;;;;;19.00;6.40;;;-0.40;99.90;;;;;;5018122;28;20469;-76
2021/01/20 03:17:57;;;;;;;14.77;5.80;;;-0.30;99.90;;;;;;5018639;28;20552;-76
2021/01/20 03:20:23;;;;;;;14.43;6.30;;;-0.30;99.90;;;;;;5019283;28;20978;-76
2021/01/20 03:22:51;;;;;;;16.93;6.10;;;-0.10;99.90;;;;;;5017830;28;21002;-76
2021/01/20 03:25:17;;;;;;;15.50;5.90;;;0.00;99.90;;;;;;5016471;28;20902;-76
2021/01/20 03:27:44;;;;;;;12.90;5.43;;;0.10;99.90;;;;;;5016042;28;20213;-76
2021/01/20 03:30:11;;;;;;;14.73;5.87;;;0.10;99.90;;;;;;5018233;28;20497;-76
2021/01/20 03:32:37;;;;;;;12.87;6.17;;;0.20;99.90;;;;;;5016087;28;20488;-76
2021/01/20 03:35:05;;;;;;;13.97;5.83;;;0.20;99.90;;;;;;5014462;28;20498;-76
2021/01/20 03:37:31;;;;;;;15.60;6.13;;;0.30;99.90;;;;;;5014847;28;20462;-76
2021/01/20 03:39:59;;;;;;;14.27;6.70;;;0.30;99.90;;;;;;5016615;28;20853;-76
2021/01/20 03:42:25;;;;;;;18.50;6.10;;;0.30;99.90;;;;;;5014076;28;20612;-76
2021/01/20 03:44:51;;;;;;;14.93;5.97;;;0.40;99.90;;;;;;5014824;28;20468;-76
2021/01/20 03:47:18;;;;;;;17.50;5.83;;;0.50;99.90;;;;;;5013056;28;20545;-76
2021/01/20 03:49:44;;;;;;;11.47;5.70;;;0.50;99.90;;;;;;5013316;28;21044;-76
2021/01/20 03:52:11;;;;;;;11.50;5.83;;;0.50;99.90;;;;;;5015599;28;21105;-76
2021/01/20 03:54:37;;;;;;;12.83;6.23;;;0.60;99.90;;;;;;5014911;28;20553;-76
2021/01/20 03:57:05;;;;;;;15.33;5.80;;;0.70;99.90;;;;;;5016560;28;20208;-76
2021/01/20 03:59:31;;;;;;;13.53;6.00;;;0.80;99.90;;;;;;5016076;28;20450;-76
2021/01/20 04:01:59;;;;;;;14.87;6.40;;;0.90;99.90;;;;;;5017031;28;20678;-76
2021/01/20 04:04:25;;;;;;;14.73;6.60;;;0.80;99.90;;;;;;5019261;28;21007;-76
2021/01/20 04:06:52;;;;;;;11.43;5.90;;;0.70;99.90;;;;;;5016419;28;20298;-76
2021/01/20 04:09:18;;;;;;;15.90;6.23;;;0.70;99.90;;;;;;5014976;28;20491;-76
2021/01/20 04:11:44;;;;;;;10.37;5.57;;;0.80;99.90;;;;;;5019222;28;20566;-76
2021/01/20 04:14:12;;;;;;;11.23;5.47;;;0.80;99.90;;;;;;5016470;28;20669;-77
2021/01/20 04:16:38;;;;;;;16.53;5.83;;;0.80;99.90;;;;;;5022368;28;20204;-76
2021/01/20 04:19:04;;;;;;;12.20;5.47;;;0.80;99.90;;;;;;5020172;28;20208;-76
2021/01/20 04:21:31;;;;;;;11.10;4.87;;;0.80;99.90;;;;;;5020883;28;20474;-76
2021/01/20 04:23:57;;;;;;;11.17;5.23;;;0.70;99.90;;;;;;5020150;28;20459;-76
2021/01/20 04:26:24;;;;;;;12.67;5.30;;;0.70;99.90;;;;;;5020372;28;20287;-76
2021/01/20 04:28:50;;;;;;;16.73;6.07;;;0.70;99.90;;;;;;5016528;28;20550;-76
2021/01/20 04:31:17;;;;;;;17.53;8.00;;;0.60;99.90;;;;;;5019064;28;20331;-74
2021/01/20 04:33:44;;;;;;;13.17;5.60;;;0.50;99.90;;;;;;5016444;28;20224;-74
2021/01/20 04:36:10;;;;;;;12.80;6.23;;;0.50;99.90;;;;;;5016741;28;20195;-75
2021/01/20 04:38:36;;;;;;;20.20;7.57;;;0.40;99.90;;;;;;5020941;28;20303;-74
2021/01/20 04:41:03;;;;;;;16.90;6.50;;;0.40;99.90;;;;;;5019303;28;20203;-74
2021/01/20 04:43:29;;;;;;;14.10;5.37;;;0.40;99.90;;;;;;5019645;28;20458;-75
2021/01/20 04:45:56;;;;;;;12.90;5.60;;;0.40;99.90;;;;;;5020472;28;20204;-75
2021/01/20 04:48:31;;;;;;;14.67;7.33;;;0.30;99.90;;;;;;5019180;28;20219;-75
2021/01/20 04:50:59;;;;;;;13.37;6.10;;;0.30;99.90;;;;;;5019918;28;20250;-74
2021/01/20 04:53:27;;;;;;;18.00;6.73;;;0.30;99.90;;;;;;5019056;28;20212;-75
2021/01/20 04:55:56;;;;;;;14.57;6.43;;;0.20;99.90;;;;;;5020782;28;20446;-75
2021/01/20 04:58:23;;;;;;;15.20;6.50;;;0.10;99.90;;;;;;5019581;28;20239;-75
2021/01/20 05:00:52;;;;;;;14.47;6.00;;;0.00;99.90;;;;;;5019546;28;20542;-74
2021/01/20 05:03:18;;;;;;;15.43;6.60;;;0.00;99.90;;;;;;5019500;28;20565;-75
2021/01/20 05:05:46;;;;;;;16.73;6.73;;;-0.10;99.90;;;;;;5018085;28;20203;-75
2021/01/20 05:08:13;;;;;;;13.13;6.40;;;-0.10;99.90;;;;;;5016083;28;20920;-75
2021/01/20 05:10:39;;;;;;;20.17;7.50;;;-0.20;99.90;;;;;;5012868;28;20230;-74
2021/01/20 05:13:23;;;;;;;17.43;6.97;;;-0.20;99.90;;;;;;5013984;28;20521;-75
2021/01/20 05:15:49;;;;;;;16.13;7.30;;;-0.20;99.90;;;;;;5015005;28;20799;-75
2021/01/20 05:18:16;;;;;;;17.90;7.50;;;-0.20;99.90;;;;;;5015218;28;20458;-75
2021/01/20 05:20:42;;;;;;;14.20;6.00;;;-0.20;99.90;;;;;;5015397;28;20707;-75
2021/01/20 05:23:10;;;;;;;13.60;6.00;;;-0.20;99.90;;;;;;5014058;28;20713;-75
2021/01/20 05:25:38;;;;;;;14.47;6.77;;;-0.20;99.90;;;;;;5014292;28;20483;-75
2021/01/20 05:28:21;;;;;;;13.83;6.37;;;-0.20;99.90;;;;;;5016728;28;20298;-75
2021/01/20 05:30:49;;;;;;;12.70;6.33;;;-0.10;99.90;;;;;;5012318;28;20565;-74
2021/01/20 05:33:18;;;;;;;15.67;6.40;;;0.00;99.90;;;;;;5016799;28;21082;-75
2021/01/20 05:35:45;;;;;;;15.97;6.77;;;0.10;99.90;;;;;;5019411;28;20529;-75
2021/01/20 05:38:14;;;;;;;14.43;6.47;;;0.10;99.90;;;;;;5018953;28;20897;-76
2021/01/20 05:40:41;;;;;;;15.27;6.50;;;0.20;99.90;;;;;;5013522;28;20467;-74
2021/01/20 05:43:07;;;;;;;14.13;6.27;;;0.20;99.90;;;;;;5015838;28;20549;-75
2021/01/20 05:45:45;;;;;;;18.93;7.17;;;0.30;99.90;;;;;;5015634;28;20218;-76
2021/01/20 05:48:12;;;;;;;15.33;6.77;;;0.30;99.90;;;;;;5019305;28;20214;-75
2021/01/20 05:50:55;;;;;;;13.80;6.93;;;0.40;99.90;;;;;;5015924;28;20487;-77
2021/01/20 05:53:22;;;;;;;15.53;6.33;;;0.50;99.90;;;;;;5015429;28;20196;-75
2021/01/20 05:56:04;;;;;;;14.23;6.50;;;0.50;99.90;;;;;;5016220;28;20488;-75
2021/01/20 05:58:37;;;;;;;14.80;6.93;;;0.50;99.90;;;;;;5020157;28;20496;-76
2021/01/20 06:01:08;;;;;;;13.63;6.03;;;0.60;99.90;;;;;;5016973;28;20598;-75
2021/01/20 06:03:36;;;;;;;15.90;6.87;;;0.70;99.90;;;;;;5020534;28;20356;-75
2021/01/20 06:06:04;;;;;;;17.73;7.67;;;0.80;99.90;;;;;;5017987;28;20249;-74
2021/01/20 06:08:34;;;;;;;16.07;6.77;;;1.00;99.90;;;;;;5017525;28;20247;-75
2021/01/20 06:11:02;;;;;;;15.17;7.87;;;0.90;99.90;;;;;;5018810;28;20645;-74
2021/01/20 06:13:28;;;;;;;14.57;7.60;;;0.90;99.90;;;;;;5025131;28;20286;-77
2021/01/20 06:15:58;;;;;;;17.73;7.47;;;0.90;99.90;;;;;;5022259;28;20503;-77
2021/01/20 06:18:27;;;;;;;16.97;7.23;;;0.90;99.90;;;;;;5021207;28;20242;-76
2021/01/20 06:20:54;;;;;;;13.57;7.17;;;0.90;99.90;;;;;;5021293;28;20886;-77
2021/01/20 06:23:24;;;;;;;16.03;7.43;;;0.90;99.90;;;;;;5019991;28;20251;-75
2021/01/20 06:25:58;;;;;;;16.70;7.30;;;1.00;99.90;;;;;;5022712;28;20207;-75
2021/01/20 06:28:24;;;;;;;12.83;6.40;;;1.00;99.90;;;;;;5016405;28;20806;-77
2021/01/20 06:30:53;;;;;;;17.37;7.20;;;1.00;99.90;;;;;;5018754;28;20319;-77
2021/01/20 06:33:22;;;;;;;17.77;7.07;;;1.00;99.90;;;;;;5018139;28;20208;-77
2021/01/20 06:35:50;;;;;;;16.73;6.73;;;1.10;99.90;;;;;;5019554;28;20238;-77
2021/01/20 06:38:38;;;;;;;15.20;7.70;;;1.10;99.90;;;;;;5068897;23;20724;-71
2021/01/20 06:41:09;;;;;;;14.60;6.17;;;1.00;99.90;;;;;;4995452;28;20496;-71
2021/01/20 06:43:44;;;;;;;17.87;7.53;;;1.10;99.90;;;;;;4999174;28;20334;-72
2021/01/20 06:46:19;;;;;;;20.97;10.33;;;1.10;99.90;;;;;;4997058;28;21101;-72
2021/01/20 06:49:15;;;;;;;17.55;8.27;;;1.20;99.90;;;;;;4999793;28;20558;-72
2021/01/20 06:51:43;;;;;;;18.53;8.40;;;1.20;99.90;;;;;;4988411;28;20602;-71
2021/01/20 06:54:14;;;;;;;19.03;7.47;;;1.30;99.90;;;;;;4989105;28;20254;-71
2021/01/20 06:56:47;;;;;;;14.07;6.97;;;1.30;99.90;;;;;;4991189;28;20236;-71
2021/01/20 06:59:24;;;;;;;14.63;6.63;;;1.30;99.90;;;;;;4990011;28;21054;-72
2021/01/20 07:02:13;;;;;;;13.30;7.77;;;1.30;99.90;;;;;;4990989;28;20805;-71
2021/01/20 07:05:04;;;;;;;20.33;9.37;;;1.20;99.90;;;;;;4992001;28;21043;-72
2021/01/20 07:08:01;;;;;;;23.90;8.97;;;1.20;99.90;;;;;;4990785;28;20232;-72
2021/01/20 07:10:51;;;;;;;19.30;7.93;;;1.00;99.90;;;;;;4988545;28;20248;-72
2021/01/20 07:13:31;;;;;;;16.20;8.07;;;1.00;99.90;;;;;;4990506;28;20509;-72
2021/01/20 07:15:58;;;;;;;16.70;8.00;;;1.00;99.90;;;;;;4993564;28;20255;-72
2021/01/20 07:18:25;;;;;;;19.40;7.67;;;0.90;99.90;;;;;;4992813;28;20474;-72
2021/01/20 07:20:53;;;;;;;20.07;8.23;;;0.90;99.90;;;;;;4990388;28;20493;-72
2021/01/20 07:23:20;;;;;;;19.53;7.53;;;0.90;99.90;;;;;;4991001;28;20211;-72
2021/01/20 07:25:48;;;;;;;16.73;7.87;;;0.90;99.90;;;;;;4990418;28;20295;-72
2021/01/20 07:28:14;;;;;;;16.20;7.63;;;0.90;99.90;;;;;;4991414;28;20501;-71
2021/01/20 07:30:42;;;;;;;19.47;8.57;;;0.90;99.90;;;;;;4992867;28;20247;-71
2021/01/20 07:33:19;;;;;;;21.50;7.87;;;1.00;99.90;;;;;;4997324;28;20475;-72
2021/01/20 07:35:45;;;;;;;16.73;8.43;;;1.00;99.90;;;;;;5001686;28;20197;-71
2021/01/20 07:38:12;;;;;;;21.10;9.17;;;1.00;99.90;;;;;;4995061;28;20578;-71
2021/01/20 07:40:40;;;;;;;18.60;8.10;;;1.10;99.90;;;;;;4988275;28;20249;-72
2021/01/20 07:43:07;;;;;;;20.37;10.40;;;1.10;99.90;;;;;;4996129;28;20229;-71
2021/01/20 07:45:38;;;;;;;18.30;8.43;;;1.10;99.90;;;;;;4994270;28;20737;-72
2021/01/20 07:48:08;;;;;;;18.73;8.23;;;1.20;99.90;;;;;;5003837;28;20296;-72
2021/01/20 07:50:43;;;;;;;21.37;8.50;;;1.30;99.90;;;;;;4998458;28;20238;-71
2021/01/20 07:53:17;;;;;;;17.03;7.47;;;1.30;99.90;;;;;;4996994;28;20224;-71
2021/01/20 07:55:45;;;;;;;19.13;8.87;;;1.40;99.90;;;;;;5001511;28;20235;-72
2021/01/20 07:58:12;;;;;;;17.43;7.87;;;1.50;99.90;;;;;;4997320;28;20451;-73
2021/01/20 08:00:44;;;;;;;16.43;7.80;;;1.50;99.90;;;;;;4996898;28;20205;-74
2021/01/20 08:03:11;;;;;;;17.30;7.97;;;1.70;99.90;;;;;;4991961;28;20228;-71
2021/01/20 08:05:38;;;;;;;17.73;8.40;;;1.80;99.90;;;;;;5001427;28;20292;-72
2021/01/20 08:08:08;;;;;;;14.53;7.57;;;1.80;99.90;;;;;;4998312;28;20228;-72
2021/01/20 08:10:35;;;;;;;16.00;8.00;;;1.80;99.90;;;;;;4997080;28;20693;-72
2021/01/20 08:13:03;;;;;;;17.67;8.90;;;1.80;99.90;;;;;;4997979;28;20234;-72
2021/01/20 08:15:32;;;;;;;16.47;8.80;;;1.80;99.90;;;;;;4993178;28;20311;-73
2021/01/20 08:17:59;;;;;;;15.73;7.90;;;1.90;99.90;;;;;;4996139;28;20216;-72
2021/01/20 08:20:32;;;;;;;13.63;8.00;;;2.00;99.90;;;;;;4995095;28;20224;-71
2021/01/20 08:22:59;;;;;;;17.37;7.90;;;2.00;99.90;;;;;;4998775;28;20574;-72
2021/01/20 08:25:26;;;;;;;14.47;6.50;;;2.00;99.90;;;;;;4992235;28;20243;-73
2021/01/20 08:27:52;;;;;;;15.37;7.07;;;2.10;99.90;;;;;;4995898;28;20243;-71
2021/01/20 08:30:29;;;;;;;17.87;8.37;;;2.20;99.90;;;;;;5004431;28;20743;-72
2021/01/20 08:32:56;;;;;;;19.10;7.50;;;2.20;99.90;;;;;;4998420;28;20252;-72
2021/01/20 08:35:32;;;;;;;19.97;8.40;;;2.20;99.90;;;;;;4997484;28;20296;-72
2021/01/20 08:37:58;;;;;;;21.27;9.27;;;2.30;99.90;;;;;;4998836;28;20290;-73
2021/01/20 08:40:26;;;;;;;17.13;8.03;;;2.40;99.90;;;;;;4999146;28;20577;-71
2021/01/20 08:42:52;;;;;;;18.57;8.17;;;2.40;99.90;;;;;;5002505;28;20307;-73
2021/01/20 08:45:30;;;;;;;14.20;6.90;;;2.40;99.90;;;;;;5004349;28;20224;-71
2021/01/20 08:47:59;;;;;;;12.30;5.80;;;2.40;99.90;;;;;;4992934;28;20213;-73
2021/01/20 08:50:35;;;;;;;13.07;5.87;;;2.50;99.90;;;;;;4999519;28;20311;-72
2021/01/20 08:53:02;;;;;;;16.20;7.57;;;2.70;99.90;;;;;;4998170;28;20648;-71
2021/01/20 08:55:31;;;;;;;14.27;6.47;;;2.90;99.90;;;;;;4999344;28;20727;-72
2021/01/20 08:58:27;;;;;;;18.13;7.27;;;3.00;99.90;;;;;;4999694;28;20267;-71
2021/01/20 09:00:56;;;;;;;16.07;8.07;;;2.90;99.90;;;;;;4995821;28;20318;-72
2021/01/20 09:03:24;;;;;;;20.40;8.33;;;3.00;99.90;;;;;;4996547;28;20470;-71
2021/01/20 09:05:52;;;;;;;16.97;8.07;;;3.00;99.90;;;;;;4998575;28;20912;-73
2021/01/20 09:08:19;;;;;;;18.37;8.10;;;3.10;99.90;;;;;;4995234;28;20212;-72
2021/01/20 09:10:47;;;;;;;12.67;5.60;;;3.20;99.90;;;;;;4995917;28;20310;-73
2021/01/20 09:13:15;;;;;;;16.50;5.90;;;3.20;99.90;;;;;;4996860;28;20370;-70
2021/01/20 09:15:41;;;;;;;11.40;5.33;;;3.30;99.90;;;;;;4998140;28;20755;-72
2021/01/20 09:18:08;;;;;;;12.87;6.03;;;3.50;99.90;;;;;;4998048;28;20239;-71
2021/01/20 09:20:35;;;;;;;16.00;6.17;;;3.60;99.90;;;;;;4996965;28;20211;-72
2021/01/20 09:23:02;;;;;;;13.77;5.87;;;3.60;99.90;;;;;;4998187;28;20316;-72
2021/01/20 09:25:29;;;;;;;14.73;6.60;;;3.70;99.90;;;;;;4999416;28;20725;-71
2021/01/20 09:27:56;;;;;;;9.70;4.60;;;3.80;99.90;;;;;;4998093;28;20740;-71
2021/01/20 09:30:23;;;;;;;9.43;4.70;;;3.90;99.90;;;;;;4999352;28;20232;-71
2021/01/20 09:32:49;;;;;;;10.97;5.70;;;4.10;99.90;;;;;;4997821;28;20796;-73
2021/01/20 09:35:17;;;;;;;8.07;4.03;;;4.20;99.90;;;;;;4998499;28;20299;-70
2021/01/20 09:37:45;;;;;;;6.03;3.17;;;4.30;99.90;;;;;;4997075;28;20634;-70
2021/01/20 09:40:14;;;;;;;8.97;3.77;;;4.50;99.90;;;;;;4997262;28;20235;-70
2021/01/20 09:42:41;;;;;;;8.27;4.07;;;4.60;99.90;;;;;;4997029;28;20330;-70
2021/01/20 09:45:10;;;;;;;8.47;4.17;;;4.80;99.90;;;;;;5000904;28;20238;-71
2021/01/20 09:47:36;;;;;;;8.57;3.97;;;5.00;99.90;;;;;;4999488;28;20304;-72
2021/01/20 09:50:04;;;;;;;7.70;3.57;;;5.10;99.90;;;;;;4991632;28;20314;-71
2021/01/20 09:52:30;;;;;;;11.73;4.10;;;5.20;99.90;;;;;;4997890;28;20281;-72
2021/01/20 09:54:57;;;;;;;10.33;3.83;;;5.30;99.90;;;;;;5014510;28;20260;-71
2021/01/20 09:57:24;;;;;;;5.77;3.03;;;5.40;99.90;;;;;;5002497;28;20239;-73
2021/01/20 09:59:51;;;;;;;6.90;3.67;;;5.60;99.90;;;;;;4994155;28;20521;-71
2021/01/20 10:02:18;;;;;;;8.40;3.57;;;5.70;99.90;;;;;;4996474;28;20319;-71
2021/01/20 10:04:45;;;;;;;8.80;3.60;;;5.90;99.90;;;;;;4997397;28;20219;-72
2021/01/20 10:07:12;;;;;;;10.40;4.47;;;6.00;99.90;;;;;;4992241;28;20209;-72
2021/01/20 10:09:39;;;;;;;11.77;4.37;;;6.10;99.90;;;;;;4996481;28;20286;-70
2021/01/20 10:12:06;;;;;;;9.27;3.87;;;6.10;99.90;;;;;;4993804;28;20347;-71
2021/01/20 10:14:34;;;;;;;9.07;4.30;;;6.10;99.90;;;;;;4994392;28;20287;-71
2021/01/20 10:17:00;;;;;;;7.60;3.50;;;6.20;99.90;;;;;;4996054;28;20212;-71
2021/01/20 10:19:27;;;;;;;8.47;3.60;;;6.10;99.90;;;;;;4996679;28;20540;-71
2021/01/20 10:21:53;;;;;;;8.47;3.83;;;6.10;99.90;;;;;;4995026;28;20224;-73
2021/01/20 10:24:20;;;;;;;7.27;3.60;;;6.10;99.90;;;;;;4991892;28;20348;-73
2021/01/20 10:26:46;;;;;;;8.10;3.70;;;6.20;99.90;;;;;;4992756;28;20204;-71
2021/01/20 10:29:13;;;;;;;8.20;3.63;;;6.30;99.90;;;;;;4993496;28;20714;-70
2021/01/20 10:31:41;;;;;;;8.03;3.60;;;6.40;99.90;;;;;;4993353;28;20236;-71
2021/01/20 10:34:08;;;;;;;9.10;3.67;;;6.60;99.90;;;;;;4994502;28;20228;-70
2021/01/20 10:36:35;;;;;;;7.40;3.67;;;6.60;99.90;;;;;;4995446;28;20589;-71
2021/01/20 10:39:02;;;;;;;6.10;3.33;;;6.60;99.90;;;;;;4996124;28;20316;-72
2021/01/20 10:41:29;;;;;;;8.17;3.23;;;6.60;99.90;;;;;;5000445;28;20307;-71
2021/01/20 10:43:55;;;;;;;8.70;3.80;;;6.40;99.90;;;;;;4999078;28;20361;-72
2021/01/20 10:46:25;;;;;;;6.83;3.67;;;6.50;99.90;;;;;;5000826;28;20295;-72
2021/01/20 10:48:53;;;;;;;9.57;3.80;;;6.50;99.90;;;;;;4999480;28;20216;-71
2021/01/20 10:51:20;;;;;;;7.90;3.50;;;6.60;99.90;;;;;;4996458;28;20283;-72
2021/01/20 10:53:46;;;;;;;8.10;3.40;;;6.70;99.90;;;;;;4996583;28;20204;-72
2021/01/20 10:56:13;;;;;;;7.77;3.20;;;6.80;99.90;;;;;;4996239;28;20205;-72
2021/01/20 10:58:39;;;;;;;6.63;3.40;;;6.80;99.90;;;;;;5001259;28;20288;-71
2021/01/20 11:01:06;;;;;;;6.97;3.27;;;6.80;99.90;;;;;;4993804;28;20288;-71
2021/01/20 11:03:32;;;;;;;7.80;3.50;;;6.80;99.90;;;;;;5003731;28;20232;-72
2021/01/20 11:05:59;;;;;;;6.47;3.17;;;6.80;99.90;;;;;;5012046;28;20236;-73
2021/01/20 11:08:26;;;;;;;7.00;3.53;;;6.80;99.90;;;;;;5007045;28;20623;-71
2021/01/20 11:10:53;;;;;;;6.77;3.40;;;6.90;99.90;;;;;;4994357;28;20220;-73
2021/01/20 11:13:19;;;;;;;7.73;3.40;;;7.00;99.90;;;;;;4997822;28;20224;-71
2021/01/20 11:15:46;;;;;;;6.40;3.20;;;6.90;99.90;;;;;;4999237;28;20652;-73
2021/01/20 11:18:13;;;;;;;9.57;3.60;;;6.90;99.90;;;;;;4999206;28;20201;-73
2021/01/20 11:20:40;;;;;;;7.83;3.70;;;6.90;99.90;;;;;;4996527;28;20208;-72
2021/01/20 11:23:10;;;;;;;9.60;3.80;;;6.90;99.90;;;;;;4995103;28;20288;-72
2021/01/20 11:25:37;;;;;;;7.33;4.10;;;6.90;99.90;;;;;;4994005;28;20201;-73
2021/01/20 11:28:03;;;;;;;7.60;3.50;;;7.00;99.90;;;;;;4996991;28;20569;-73
2021/01/20 11:30:30;;;;;;;10.60;4.10;;;7.00;99.90;;;;;;4997016;28;20339;-72
2021/01/20 11:32:56;;;;;;;7.60;3.90;;;7.00;99.90;;;;;;4994167;28;20703;-72
2021/01/20 11:35:23;;;;;;;7.07;3.43;;;7.00;99.90;;;;;;4998651;28;20333;-72
2021/01/20 11:37:49;;;;;;;6.47;3.33;;;7.10;99.90;;;;;;5001090;28;20358;-71
2021/01/20 11:40:16;;;;;;;6.37;3.37;;;7.20;99.90;;;;;;4999545;28;20363;-73
2021/01/20 11:42:43;;;;;;;7.63;3.47;;;7.20;99.90;;;;;;4997610;28;20226;-74
2021/01/20 11:45:10;;;;;;;8.53;3.83;;;7.20;99.90;;;;;;4996467;28;20973;-71
2021/01/20 11:47:37;;;;;;;8.47;3.43;;;7.30;99.90;;;;;;4994179;28;20285;-73
2021/01/20 11:50:06;;;;;;;10.77;3.63;;;7.20;99.90;;;;;;4990809;28;20228;-73
2021/01/20 11:52:32;;;;;;;10.67;4.13;;;7.20;99.90;;;;;;4991348;28;20856;-72
2021/01/20 11:54:59;;;;;;;10.00;4.53;;;7.10;99.90;;;;;;4992598;28;20270;-72
2021/01/20 11:57:27;;;;;;;11.70;4.53;;;7.10;99.90;;;;;;4988826;28;20216;-71
2021/01/20 11:59:53;;;;;;;13.23;4.77;;;7.20;99.90;;;;;;4997633;28;20197;-72
2021/01/20 12:02:19;;;;;;;10.97;4.50;;;7.30;99.90;;;;;;4999812;28;20646;-72
2021/01/20 12:04:46;;;;;;;10.80;4.60;;;7.50;99.90;;;;;;4995670;28;20244;-73
2021/01/20 12:07:12;;;;;;;8.37;3.77;;;7.60;99.90;;;;;;4997190;28;20213;-73
2021/01/20 12:09:38;;;;;;;8.93;3.77;;;7.70;99.90;;;;;;4996442;28;20654;-72
2021/01/20 12:12:06;;;;;;;7.43;3.30;;;7.80;99.90;;;;;;4996832;28;20223;-71
2021/01/20 12:14:37;;;;;;;10.80;4.20;;;7.80;99.90;;;;;;4995474;28;20208;-72
2021/01/20 12:17:04;;;;;;;9.60;3.50;;;7.80;99.90;;;;;;4999831;28;20219;-72
2021/01/20 12:19:30;;;;;;;8.03;3.70;;;8.00;99.90;;;;;;4999625;28;20295;-72
2021/01/20 12:21:56;;;;;;;7.60;3.87;;;8.10;99.90;;;;;;4999677;28;20409;-73
2021/01/20 12:24:23;;;;;;;9.40;3.40;;;8.10;99.90;;;;;;4998126;28;20201;-72
2021/01/20 12:26:49;;;;;;;6.23;3.03;;;8.30;99.90;;;;;;5003114;28;20240;-72
2021/01/20 12:29:16;;;;;;;5.37;3.07;;;8.30;99.90;;;;;;5002348;28;21028;-72
2021/01/20 12:31:43;;;;;;;6.77;3.77;;;8.30;99.90;;;;;;5001289;28;20325;-72
2021/01/20 12:34:09;;;;;;;6.87;3.33;;;8.30;99.90;;;;;;4996881;28;20246;-71
2021/01/20 12:36:36;;;;;;;7.47;3.37;;;8.60;99.90;;;;;;4997145;28;20662;-71
2021/01/20 12:39:03;;;;;;;7.00;3.17;;;8.40;99.90;;;;;;5068315;23;20231;-75
2021/01/20 12:41:30;;;;;;;6.47;3.13;;;8.40;99.90;;;;;;5020346;28;20224;-75
2021/01/20 12:43:56;;;;;;;8.53;3.50;;;8.40;99.90;;;;;;5016508;28;20649;-75
2021/01/20 12:46:23;;;;;;;7.67;3.73;;;8.40;99.90;;;;;;5019939;28;20294;-77
2021/01/20 12:48:50;;;;;;;8.33;3.53;;;8.40;99.90;;;;;;5018954;28;20203;-76
2021/01/20 12:51:16;;;;;;;6.53;3.60;;;8.40;99.90;;;;;;5018493;28;20669;-75
2021/01/20 12:53:43;;;;;;;9.47;3.47;;;8.30;99.90;;;;;;5017616;28;20737;-76